Aviation Digital Data Service (ADDS)

Output produced by METARs form (0325 UTC 21 September 2017)
found at http://www.aviationweather.gov/adds/metars/
 
BKPR 210330Z 34004KT 9999 FEW040 BKN080 10/08 Q1013 NOSIG
TAF BKPR 202330Z 2100/2124 VRB03KT 9999 SCT040 BKN080 
     TEMPO 2111/2116 31015KT 5000 SHRA